KENL/ENL METAR and TAF weather

Enter ICAO airport designator
Station Type Date Time Source
KENL METAR 2020/07/10 23:15 UTC NOAA

KENL 102315Z AUTO 31008KT 10SM CLR 31/19 A2995 RMK AO2 T03060187


Station Type Date Time Source
KENL Decoded METAR 2020/07/10 23:15 UTC NOAA

Centralia, Centralia Municipal Airport, IL, United States (KENL) 38-30-53N 089-05-32W
Jul 10, 2020 - 07:15 PM EDT / 2020.07.10 2315 UTC
Wind: from the NW (310 degrees) at 9 MPH (8 KT):0
Visibility: 10 mile(s):0
Sky conditions: clear
Temperature: 87.1 F (30.6 C)
Dew Point: 65.7 F (18.7 C)
Relative Humidity: 49%
Pressure (altimeter): 29.95 in. Hg (1014 hPa)
ob: KENL 102315Z AUTO 31008KT 10SM CLR 31/19 A2995 RMK AO2 T03060187
cycle: 23

Station Type Date Time Source
KENL TAF UTC NOAA

Error!

Example: see airport list